TED STEVENS ANCHORAGE INTL

PANC (ANC)
Anchorage, Alaska
Towered

Vatsim Metar:
PANC 272053Z 02010KT 10SM SCT090 BKN160 M15/M23 A2924 RMK AO2 SLP904 T11501228 58007

No ATC Online

Traffic

Inbound:
Ident
Type
Name
ETA
Phase
UPS500
H/B744/L
Chase Stigberg KRIC
21:32 Z
Descent
AAL1713
H/B77W/L
Scott Johnson EGKK
22:35 Z
Cruse
ASA625
B788/L
Jorge Novelo MMMX
00:44 Z
Climb

Outbound:
None